Latest Weather Observations for Derby

IDW60801

Issued at 4:34 pm WST Wednesday 22 February 2017 (issued every 30 minutes, with the page automatically refreshed every 10 minutes)

About weather observations | Map of weather stations | Latest weather observations for WA | Other Formats
Station Details ID: 003032 Name: DERBY AERO Lat: -17.37 Lon: 123.66 Height: 6.2 m
Data from the previous 72 hours. | See also: Recent months at Derby
Date/Time
WST
Temp
°C
App
Temp
°C
Dew
Point
°C
Rel
Hum
%
Delta-T
°C
Wind Press
QNH
hPa
Press
MSL
hPa
Rain since
9am
mm
Dir  Spd
km/h
Gust
km/h
Spd
kts
Gust
kts
22/04:30pm 34.2 39.0 24.2 56 7.0 W 6 9 3 5 1008.4 1008.4 0.0
22/04:00pm 35.2 39.8 23.8 51 8.0 WSW 6 13 3 7 1008.4 1008.4 0.0
22/03:30pm 34.9 39.4 23.9 53 7.7 S 7 11 4 6 1008.5 1008.5 0.0
22/03:00pm 34.5 39.2 25.6 60 6.4 SSE 11 17 6 9 1008.9 1008.9 0.0
22/02:30pm 34.8 39.7 25.3 57 6.8 SW 9 17 5 9 1009.3 1009.3 0.0
22/02:00pm 34.0 38.1 24.6 58 6.6 SSE 11 17 6 9 1009.5 1009.5 0.0
22/01:30pm 33.9 38.9 24.5 58 6.6 W 6 11 3 6 1009.8 1009.8 0.0
22/01:00pm 33.5 38.4 24.7 60 6.2 WSW 7 17 4 9 1010.1 1010.1 0.0
22/12:30pm 33.3 38.2 25.3 63 5.7 SW 9 15 5 8 1010.5 1010.5 0.0
22/12:00pm 32.5 36.3 24.0 61 5.9 SW 11 17 6 9 1011.0 1011.0 0.0
22/11:30am 32.4 36.6 24.7 64 5.4 SSW 11 17 6 9 1011.5 1011.5 0.0
22/11:00am 32.1 35.5 24.7 65 5.2 S 15 20 8 11 1012.0 1012.0 0.0
22/10:30am 31.3 35.5 25.4 71 4.2 S 13 19 7 10 1012.5 1012.5 0.0
22/10:00am 31.3 34.8 24.9 69 4.5 SSW 15 22 8 12 1012.7 1012.7 0.0
22/09:30am 31.2 35.6 25.1 70 4.3 SSW 11 13 6 7 1012.8 1012.8 0.0
22/09:00am 30.1 34.7 24.7 73 3.8 SW 9 13 5 7 1013.0 1013.0 0.0
22/08:30am 29.6 33.9 24.9 76 3.3 SW 11 15 6 8 1012.9 1012.9 0.0
22/08:00am 29.2 33.9 25.0 78 2.9 WSW 9 11 5 6 1012.7 1012.7 0.0
22/07:30am 28.8 34.1 25.2 81 2.5 SW 7 9 4 5 1012.3 1012.3 0.0
22/07:00am 27.7 33.0 24.9 85 2.0 SSW 6 7 3 4 1012.3 1012.3 0.0
22/06:30am 27.6 33.7 25.6 89 1.4 SW 4 6 2 3 1011.8 1011.8 0.0
22/06:00am 26.8 33.8 25.8 94 0.7 CALM 0 0 0 0 1011.6 1011.6 0.0
22/05:30am 26.6 32.2 25.4 93 0.8 W 6 7 3 4 1011.5 1011.5 0.0
22/05:00am 26.7 32.3 25.5 93 0.8 NW 6 6 3 3 1011.4 1011.4 0.0
22/04:30am 26.9 33.5 25.3 91 1.1 CALM 0 0 0 0 1011.1 1011.1 0.0
22/04:00am 26.9 31.8 25.3 91 1.1 WSW 9 13 5 7 1010.9 1010.9 0.0
22/03:30am 26.8 31.3 25.2 91 1.1 WSW 11 13 6 7 1010.3 1010.3 0.0
22/03:00am 26.9 31.3 25.1 90 1.3 WSW 11 13 6 7 1010.2 1010.2 0.0
22/02:30am 27.0 31.1 25.2 90 1.3 W 13 17 7 9 1009.8 1009.8 0.0
22/02:00am 27.2 31.3 25.2 89 1.4 W 13 19 7 10 1009.8 1009.8 0.0
22/01:30am 27.3 31.5 25.3 89 1.4 W 13 17 7 9 1009.9 1009.9 0.0
22/01:00am 27.6 31.3 25.2 87 1.7 W 15 20 8 11 1010.1 1010.1 0.0
22/12:30am 27.8 31.3 25.4 87 1.7 W 17 20 9 11 1010.3 1010.3 0.0
22/12:00am 27.8 31.9 25.2 86 1.8 WNW 13 19 7 10 1010.4 1010.4 0.0
 
Date/Time
WST
Temp
°C
App
Temp
°C
Dew
Point
°C
Rel
Hum
%
Delta-T
°C
Wind Press
QNH
hPa
Press
MSL
hPa
Rain since
9am
mm
Dir  Spd
km/h
Gust
km/h
Spd
kts
Gust
kts
21/11:30pm 28.1 31.5 25.3 85 2.0 W 17 20 9 11 1010.8 1010.8 0.0
21/11:00pm 28.4 32.3 25.4 84 2.1 W 15 19 8 10 1011.1 1011.1 0.0
21/10:30pm 28.7 33.1 25.7 84 2.1 W 13 17 7 9 1011.3 1011.3 0.0
21/10:00pm 28.7 34.2 26.1 86 1.8 WNW 9 13 5 7 1011.2 1011.2 0.0
21/09:30pm 29.1 33.7 25.9 83 2.3 NW 13 15 7 8 1011.2 1011.2 0.0
21/09:00pm 29.2 33.4 26.0 83 2.3 NW 15 17 8 9 1011.0 1011.0 0.0
21/08:30pm 29.2 33.4 26.0 83 2.3 NW 15 17 8 9 1010.9 1010.9 0.0
21/08:00pm 29.1 33.8 25.5 81 2.5 NW 11 15 6 8 1010.8 1010.8 0.0
21/07:30pm 29.4 33.0 25.6 80 2.7 NW 17 19 9 10 1010.3 1010.3 0.0
21/07:00pm 29.5 32.9 25.9 81 2.6 NW 19 22 10 12 1009.8 1009.8 0.0
21/06:30pm 29.7 32.9 25.9 80 2.7 NW 20 24 11 13 1009.6 1009.6 0.0
21/06:00pm 30.0 32.2 25.5 77 3.2 NNW 24 30 13 16 1009.2 1009.2 0.0
21/05:30pm 30.3 31.7 25.4 75 3.5 NNW 28 33 15 18 1009.1 1009.1 0.0
21/05:00pm 30.7 31.8 25.5 74 3.7 NNW 30 35 16 19 1008.8 1008.8 0.0
21/04:30pm 31.0 31.7 24.9 70 4.3 NW 30 35 16 19 1008.5 1008.5 0.0
21/04:00pm 32.2 32.8 24.8 65 5.2 NNW 30 35 16 19 1008.5 1008.5 0.0
21/03:30pm 33.6 35.2 24.5 59 6.4 NNW 24 30 13 16 1008.3 1008.3 0.0
21/03:00pm 33.8 36.5 24.7 59 6.4 NNW 19 24 10 13 1008.2 1008.2 0.0
21/02:30pm 33.2 36.6 24.1 59 6.4 NNW 13 19 7 10 1008.3 1008.3 0.0
21/02:00pm 34.1 36.8 23.5 54 7.4 NW 15 20 8 11 1008.4 1008.4 0.0
21/01:30pm 34.0 36.4 23.7 55 7.2 NNW 17 24 9 13 1008.7 1008.7 0.0
21/01:00pm 34.0 36.1 23.1 53 7.6 NW 17 22 9 12 1009.3 1009.3 0.0
21/12:30pm 34.1 37.9 23.5 54 7.4 WNW 9 17 5 9 1009.6 1009.6 0.0
21/12:00pm 32.9 37.8 25.9 66 5.0 WSW 11 17 6 9 1010.1 1010.1 0.0
21/11:30am 32.2 36.9 25.0 65 5.1 WSW 9 13 5 7 1010.6 1010.6 0.0
21/11:00am 32.2 37.1 25.8 69 4.6 W 11 15 6 8 1011.1 1011.1 0.0
21/10:30am 31.3 35.8 25.2 70 4.3 WSW 11 15 6 8 1011.5 1011.5 0.0
21/10:00am 31.3 35.9 25.4 71 4.2 WSW 11 13 6 7 1011.9 1011.9 0.0
21/09:30am 31.4 36.1 25.0 69 4.5 NW 9 13 5 7 1012.3 1012.3 0.0
21/09:00am 31.2 36.2 24.8 69 4.5 NW 7 9 4 5 1012.4 1012.4 0.0
21/08:30am 30.0 35.5 25.3 76 3.3 NW 6 7 3 4 1012.4 1012.4 0.0
21/08:00am 29.3 34.6 25.3 79 2.8 NW 7 11 4 6 1012.3 1012.3 0.0
21/07:30am 29.0 34.4 25.4 81 2.5 NNE 7 9 4 5 1012.0 1012.0 0.0
21/07:00am 28.7 35.3 25.3 82 2.4 CALM 0 4 0 2 1011.7 1011.7 0.0
21/06:30am 27.3 34.3 25.9 92 1.0 CALM 0 0 0 0 1011.3 1011.3 0.0
21/06:00am 26.8 32.6 25.8 94 0.7 NNE 6 9 3 5 1010.9 1010.9 0.0
21/05:30am 27.1 33.4 25.3 90 1.3 WSW 2 6 1 3 1010.1 1010.1 0.0
21/05:00am 27.2 32.5 25.2 89 1.4 SW 7 11 4 6 1009.7 1009.7 0.0
21/04:30am 27.4 32.7 25.2 88 1.5 WSW 7 11 4 6 1009.3 1009.3 0.0
21/04:00am 27.4 32.3 25.2 88 1.5 WSW 9 11 5 6 1009.2 1009.2 0.0
21/03:30am 27.5 32.8 25.3 88 1.5 WSW 7 11 4 6 1008.9 1008.9 0.0
21/03:00am 27.5 32.1 25.3 88 1.5 WSW 11 13 6 7 1008.9 1008.9 0.0
21/02:30am 27.5 32.1 25.3 88 1.5 SW 11 13 6 7 1008.8 1008.8 0.0
21/02:00am 27.4 32.3 25.2 88 1.5 SW 9 11 5 6 1008.8 1008.8 0.0
21/01:30am 27.6 32.3 25.0 86 1.8 SW 9 13 5 7 1009.0 1009.0 0.0
21/01:00am 27.6 32.2 24.8 85 2.0 SW 9 11 5 6 1009.1 1009.1 0.0
21/12:30am 27.7 31.9 24.7 84 2.1 SW 11 15 6 8 1009.3 1009.3 0.0
21/12:00am 28.0 31.5 24.8 83 2.2 WSW 15 20 8 11 1009.4 1009.4 0.0
 
Date/Time
WST
Temp
°C
App
Temp
°C
Dew
Point
°C
Rel
Hum
%
Delta-T
°C
Wind Press
QNH
hPa
Press
MSL
hPa
Rain since
9am
mm
Dir  Spd
km/h
Gust
km/h
Spd
kts
Gust
kts
20/11:30pm 28.2 31.3 24.8 82 2.4 WSW 17 20 9 11 1009.5 1009.5 0.0
20/11:00pm 28.4 31.5 24.8 81 2.5 WSW 17 20 9 11 1009.5 1009.5 0.0
20/10:30pm 28.4 32.5 24.6 80 2.6 WSW 11 13 6 7 1009.7 1009.7 0.0
20/10:00pm 28.5 32.6 24.5 79 2.8 WSW 11 13 6 7 1009.7 1009.7 0.0
20/09:30pm 28.6 33.4 24.4 78 2.9 NW 7 9 4 5 1009.8 1009.8 0.0
20/09:00pm 29.0 33.6 24.8 78 2.9 WNW 9 13 5 7 1009.7 1009.7 0.0
20/08:30pm 29.1 32.6 24.9 78 2.9 WNW 15 20 8 11 1009.4 1009.4 0.0
20/08:00pm 29.7 32.2 24.8 75 3.4 NW 20 24 11 13 1009.3 1009.3 0.0
20/07:30pm 30.0 33.5 26.0 79 2.8 NW 19 22 10 12 1009.0 1009.0 0.0
20/07:00pm 30.3 33.3 25.6 76 3.3 NNW 20 24 11 13 1008.5 1008.5 0.0
20/06:30pm 30.7 33.7 24.6 70 4.3 NW 17 22 9 12 1008.0 1008.0 0.0
20/06:00pm 31.2 33.8 23.3 63 5.5 NW 15 19 8 10 1007.1 1007.1 0.0
20/05:30pm 32.3 34.4 22.4 56 6.8 NW 15 20 8 11 1006.7 1006.7 0.0
20/05:00pm 32.9 34.8 22.0 52 7.4 WNW 15 20 8 11 1006.3 1006.3 0.0
20/04:30pm 33.3 35.5 23.3 55 6.9 WNW 17 20 9 11 1006.3 1006.3 0.0
20/04:00pm 33.7 36.4 22.8 53 7.5 WNW 13 19 7 10 1005.9 1005.9 0.0
20/03:30pm 34.3 37.7 23.3 52 7.6 W 11 15 6 8 1006.0 1006.0 0.0
20/03:00pm 34.4 38.4 23.7 53 7.5 NW 9 15 5 8 1006.0 1006.0 0.0
20/02:30pm 34.0 37.1 22.1 50 8.1 NNE 9 17 5 9 1006.3 1006.3 0.0
20/02:00pm 33.8 36.2 21.6 49 8.3 N 11 17 6 9 1006.5 1006.5 0.0
20/01:30pm 33.8 37.5 23.2 54 7.3 N 9 15 5 8 1006.8 1006.8 0.0
20/01:00pm 32.9 35.9 22.0 52 7.4 N 9 17 5 9 1007.1 1007.1 0.0
20/12:30pm 32.8 35.5 21.3 50 7.8 N 9 13 5 7 1007.5 1007.5 0.0
20/12:00pm 32.5 34.8 22.0 54 7.2 E 13 20 7 11 1008.1 1008.1 0.0
20/11:30am 31.6 34.1 23.2 61 5.8 ENE 15 22 8 12 1008.6 1008.6 0.0
20/11:00am 31.1 34.3 23.0 62 5.6 S 11 15 6 8 1009.0 1009.0 0.0
20/10:30am 30.4 34.0 23.1 65 5.0 SSE 9 13 5 7 1009.2 1009.2 0.0
20/10:00am 30.3 32.8 22.5 63 5.3 S 13 17 7 9 1009.3 1009.3 0.0
20/09:30am 30.0 32.6 22.7 65 5.0 S 13 17 7 9 1009.5 1009.5 0.0
20/09:00am 30.3 32.0 21.7 60 5.8 SSE 15 19 8 10 1009.9 1009.9 22.2
20/08:30am 29.9 32.2 22.1 63 5.3 SSE 13 17 7 9 1010.1 1010.1 22.2
20/08:00am 28.8 32.6 23.5 73 3.6 ESE 9 13 5 7 1010.1 1010.1 22.2
20/07:30am 26.3 29.3 23.4 84 2.0 ESE 13 17 7 9 1010.0 1010.0 22.2
20/07:00am 25.6 27.9 23.5 88 1.4 ESE 17 22 9 12 1009.7 1009.7 22.2
20/06:30am 25.5 28.1 23.9 91 1.1 SE 17 20 9 11 1009.1 1009.1 22.2
20/06:00am 25.3 28.9 23.7 91 1.1 S 11 13 6 7 1008.8 1008.8 22.2
20/05:30am 24.9 28.0 23.5 92 1.0 SSE 13 17 7 9 1008.8 1008.8 22.2
20/05:00am 24.7 28.3 23.8 95 0.6 SSE 11 13 6 7 1008.6 1008.6 22.2
20/04:30am 24.6 28.6 23.7 95 0.6 SSE 9 11 5 6 1008.7 1008.7 22.2
20/04:00am 24.7 28.7 23.8 95 0.6 SE 9 11 5 6 1008.6 1008.6 22.2
20/03:30am 24.7 27.2 23.8 95 0.6 SE 17 20 9 11 1008.3 1008.3 22.2
20/03:00am 24.9 28.3 24.0 95 0.6 SE 13 15 7 8 1008.3 1008.3 22.2
20/02:30am 25.2 29.1 24.2 94 0.7 SE 11 13 6 7 1008.2 1008.2 22.2
20/02:00am 25.8 31.4 24.2 91 1.1 N 2 9 1 5 1007.8 1007.8 22.2
20/01:30am 25.3 28.2 23.9 92 1.0 NNW 15 20 8 11 1007.4 1007.4 22.2
20/01:00am 24.8 26.8 23.6 93 0.8 N 19 26 10 14 1007.9 1007.9 21.8
20/12:30am 24.9 27.2 23.5 92 1.0 W 17 24 9 13 1008.0 1008.0 21.8
20/12:00am 24.5 25.4 22.6 89 1.3 WSW 22 43 12 23 1008.9 1008.9 21.8
 
Date/Time
WST
Temp
°C
App
Temp
°C
Dew
Point
°C
Rel
Hum
%
Delta-T
°C
Wind Press
QNH
hPa
Press
MSL
hPa
Rain since
9am
mm
Dir  Spd
km/h
Gust
km/h
Spd
kts
Gust
kts
19/11:51pm 23.9 25.4 22.0 89 1.3 NW 17 22 9 12 1008.3 1008.3 21.8
19/11:30pm 23.6 25.4 22.6 94 0.7 ESE 17 22 9 12 1010.3 1010.3 16.4
19/11:00pm 24.2 26.2 23.0 93 0.8 E 17 24 9 13 1011.2 1011.2 4.0
19/10:30pm 26.1 27.7 23.2 84 2.0 ENE 20 30 11 16 1011.0 1011.0 0.0
19/10:00pm 27.2 29.0 24.3 84 2.0 NE 22 30 12 16 1010.5 1010.5 0.0
19/09:30pm 27.5 29.3 24.9 86 1.8 N 24 33 13 18 1009.6 1009.6 0.0
19/09:00pm 27.9 30.6 24.7 83 2.2 N 19 24 10 13 1009.3 1009.3 0.0
19/08:30pm 28.2 29.6 24.2 79 2.8 N 24 32 13 17 1009.0 1009.0 0.0
19/08:00pm 30.0 31.3 25.3 76 3.3 N 28 39 15 21 1008.8 1008.8 0.0
19/07:30pm 30.2 32.5 25.7 77 3.2 N 24 30 13 16 1008.3 1008.3 0.0
19/07:00pm 30.3 33.2 26.0 78 3.1 N 22 30 12 16 1007.6 1007.6 0.0
19/06:30pm 30.7 33.7 26.2 77 3.2 N 22 32 12 17 1007.0 1007.0 0.0
19/06:00pm 31.2 34.4 26.5 76 3.4 N 22 35 12 19 1006.9 1006.9 0.0
19/05:30pm 31.6 34.2 26.6 75 3.6 NNW 26 35 14 19 1006.2 1006.2 0.0
19/05:00pm 32.3 34.0 25.9 69 4.6 NNW 28 35 15 19 1005.6 1005.6 0.0

Other Formats:

Comma delimited format used in spreadsheet applications
http://www.bom.gov.au/fwo/IDW60801/IDW60801.95205.axf

JavaScript Object Notation format (JSON) in row-major order
http://www.bom.gov.au/fwo/IDW60801/IDW60801.95205.json